Share

Apia Wharf, Samoa

Faleolo International (NSFA) Elev 16 ft | 13.83 °S, 172.01 °W | Change Station

Current weather conditions updated 32 minutes ago

Light Drizzle
Light Drizzle
86 °F
Feels Like 95 °F
N
5
Wind Variable Wind from NE
Sunrise 6:33 AM
Sunset 6:18 PM
Moon Waning Gibbous

Today is forecast to be nearly the same temperature as yesterday. Showers and thunderstorms.

Pressure 29.80 in
Visibility 6.2 miles
Clouds Scattered Clouds 2000 ft
Mostly Cloudy 14000 ft
Heat Index 95 °F
Dew Point 75 °F
Humidity 70%
Rainfall 0.00 in
Snow Depth Not available.
UV 0 out of 16
Pollen Not available.
Air Quality Not available.
Flu Activity Not available.
METAR NSFA 180000Z 04004KT 9999 -DZ SCT020 BKN140 30/24 Q1009

More Conditions Fewer Conditions

Pressure 29.80 in
Visibility 6.2 miles
Clouds Scattered Clouds 2000 ft
Mostly Cloudy 14000 ft
Heat Index 95 °F
Dew Point 75 °F
Humidity 70%
Rainfall 0.00 in
Snow Depth Not available.
UV 0 out of 16
Pollen Not available.
Air Quality Not available.
Flu Activity Not available.
METAR NSFA 180000Z 04004KT 9999 -DZ SCT020 BKN140 30/24 Q1009

More Conditions Fewer Conditions

10-Day Forecast

Almanac

Astronomy

Apr. 18, 2014 Rise Set
Actual Time 6:33 AM WST 6:18 PM WST
Civil Twilight 6:12 AM WST 6:40 PM WST
Nautical Twilight 5:47 AM WST 7:05 PM WST
Astronomical Twilight 5:22 AM WST 7:30 PM WST
Moon 8:41 PM WST 8:49 AM WST
Length of Visible Light 12h 28m
Length of Day
11h 44m
Tomorrow will be 0m 41s shorter.
Waning Gibbous, 92% of the Moon is Illuminated
Apr 17
Waning Gibbous
Apr 22
Last Quarter
Apr 29
New
May 6
First Quarter
May 14
Full

Yesterday's Extremes

Country Highs Country Lows

Community

  • Morning Light
    Morning Light
  • New Day
    New Day
  • Lake Michigan Sunrise
    Lake Michigan Sunrise
  • sunset from izmir, narlıdere
    sunset from izmir, narlıdere
  • oregon cherry
    oregon cherry

WunderPhotos

Upload Photos

1,702,188 photos uploaded!

WunderBlogs® & News

Nearby

Snow Depth

Not available.

Coastal Water Temperatures

Place Temperature
No Stations Reporting

Earthquake Activity

City Distance Mag. Time & Date
No recent earthquake activity has been reported nearby.
Minimum magnitude displayed is 2.5.

Nearby Weather Stations

There are no personal weather stations in this area.

What do you think?

We're not finished. Please let us know what you like, what you don't like, and what you are still missing.